Time;durP1;ratioP1;P1;durP2;ratioP2;P2;SDS_P1;SDS_P2;PMS_P1;PMS_P2;Temp;Humidity;BMP_temperature;BMP_pressure;BME280_temperature;BME280_humidity;BME280_pressure;Samples;Min_cycle;Max_cycle;Signal;HPM_P1;HPM_P2
2022/05/09 00:00:22;;;;;;;15.95;4.40;;;8.40;99.90;;;;;;5096731;28;20040;-63
2022/05/09 00:02:47;;;;;;;19.40;4.20;;;8.40;99.90;;;;;;5096039;28;20039;-63
2022/05/09 00:05:16;;;;;;;17.10;4.78;;;8.30;99.90;;;;;;5096567;28;20093;-64
2022/05/09 00:07:44;;;;;;;13.75;4.82;;;8.30;99.90;;;;;;5096731;28;20043;-63
2022/05/09 00:10:11;;;;;;;13.48;3.70;;;8.30;99.90;;;;;;5096693;28;20177;-65
2022/05/09 00:12:38;;;;;;;14.48;4.10;;;8.30;99.90;;;;;;5096851;28;20050;-63
2022/05/09 00:15:05;;;;;;;13.45;4.45;;;8.20;99.90;;;;;;5079744;28;20063;-65
2022/05/09 00:17:30;;;;;;;14.52;3.95;;;8.20;99.90;;;;;;5079555;28;20045;-64
2022/05/09 00:19:56;;;;;;;11.48;3.90;;;8.20;99.90;;;;;;5096636;28;20036;-63
2022/05/09 00:22:22;;;;;;;14.48;3.95;;;8.20;99.90;;;;;;5096467;28;20108;-64
2022/05/09 00:24:48;;;;;;;12.90;3.92;;;8.20;99.90;;;;;;5095850;28;20083;-63
2022/05/09 00:27:13;;;;;;;16.90;4.15;;;8.10;99.90;;;;;;5096469;28;20105;-65
2022/05/09 00:29:39;;;;;;;16.55;4.68;;;8.10;99.90;;;;;;5096363;28;20048;-63
2022/05/09 00:32:05;;;;;;;13.48;4.68;;;8.10;99.90;;;;;;5096266;28;20452;-64
2022/05/09 00:34:31;;;;;;;20.23;5.00;;;8.10;99.90;;;;;;5095959;28;20042;-63
2022/05/09 00:36:57;;;;;;;18.17;5.00;;;8.10;99.90;;;;;;5096653;28;20035;-64
2022/05/09 00:39:23;;;;;;;14.88;5.32;;;8.10;99.90;;;;;;5095947;28;20039;-64
2022/05/09 00:41:49;;;;;;;14.55;5.03;;;7.90;99.90;;;;;;5079775;28;20035;-65
2022/05/09 00:44:25;;;;;;;15.73;4.78;;;7.90;99.90;;;;;;5096012;28;20039;-65
2022/05/09 00:46:53;;;;;;;17.60;4.43;;;7.80;99.90;;;;;;5096228;28;20051;-64
2022/05/09 00:49:45;;;;;;;13.82;4.68;;;7.80;99.90;;;;;;5095912;28;20044;-64
2022/05/09 00:52:29;;;;;;;11.15;4.07;;;7.70;99.90;;;;;;5096692;28;20092;-64
2022/05/09 00:54:56;;;;;;;15.70;5.05;;;7.80;99.90;;;;;;5095866;28;20035;-64
2022/05/09 00:57:33;;;;;;;19.35;4.50;;;7.70;99.90;;;;;;5114036;28;20130;-64
2022/05/09 01:00:07;;;;;;;16.20;5.57;;;7.70;99.90;;;;;;5079087;28;20123;-64
2022/05/09 01:02:34;;;;;;;13.90;4.22;;;7.90;99.90;;;;;;5096142;28;20054;-64
2022/05/09 01:05:01;;;;;;;12.50;4.10;;;7.90;99.90;;;;;;5095768;28;20097;-64
2022/05/09 01:07:30;;;;;;;15.65;4.43;;;8.00;99.90;;;;;;5096030;28;20044;-64
2022/05/09 01:09:56;;;;;;;12.10;4.53;;;8.00;99.90;;;;;;5095976;28;20139;-64
2022/05/09 01:12:28;;;;;;;14.88;4.55;;;7.80;99.90;;;;;;5095997;28;20119;-64
2022/05/09 01:14:54;;;;;;;13.45;4.47;;;7.80;99.90;;;;;;5097512;28;20460;-64
2022/05/09 01:17:22;;;;;;;15.20;4.43;;;7.70;99.90;;;;;;5099727;28;20118;-64
2022/05/09 01:19:52;;;;;;;19.50;5.25;;;7.70;99.90;;;;;;5099871;28;20048;-64
2022/05/09 01:22:31;;;;;;;14.13;5.53;;;7.60;99.90;;;;;;5099925;28;20047;-64
2022/05/09 01:25:03;;;;;;;14.93;5.03;;;7.60;99.90;;;;;;5095862;28;20087;-65
2022/05/09 01:27:30;;;;;;;12.10;4.75;;;7.60;99.90;;;;;;5096367;28;20060;-64
2022/05/09 01:30:06;;;;;;;14.27;4.95;;;7.50;99.90;;;;;;5097065;28;20044;-64
2022/05/09 01:33:04;;;;;;;17.55;5.05;;;7.50;99.90;;;;;;5096915;28;20118;-65
2022/05/09 01:35:52;;;;;;;13.02;4.50;;;7.50;99.90;;;;;;5095795;28;20044;-64
2022/05/09 01:38:39;;;;;;;17.90;4.78;;;7.50;99.90;;;;;;5096227;28;20040;-64
2022/05/09 01:41:05;;;;;;;12.70;4.07;;;7.50;99.90;;;;;;5096278;28;20089;-64
2022/05/09 01:43:36;;;;;;;12.63;4.30;;;7.50;99.90;;;;;;5096741;28;20052;-63
2022/05/09 01:46:04;;;;;;;19.20;4.50;;;7.50;99.90;;;;;;5096164;28;20472;-65
2022/05/09 01:51:15;;;;;;;14.45;4.55;;;7.50;99.90;;;;;;5095846;28;20362;-64
2022/05/09 01:53:40;;;;;;;13.93;4.82;;;7.50;99.90;;;;;;5095780;28;20086;-64
2022/05/09 01:56:06;;;;;;;14.77;4.75;;;7.60;99.90;;;;;;5095867;28;20373;-65
2022/05/09 01:58:32;;;;;;;16.55;4.57;;;7.60;99.90;;;;;;5095690;28;20046;-64
2022/05/09 02:00:58;;;;;;;13.45;4.32;;;7.50;99.90;;;;;;5095757;28;20066;-64
2022/05/09 02:03:24;;;;;;;14.60;4.68;;;7.50;99.90;;;;;;5095632;28;20150;-64
2022/05/09 02:05:49;;;;;;;14.43;4.88;;;7.40;99.90;;;;;;5095323;28;20036;-64
2022/05/09 02:08:15;;;;;;;19.00;5.25;;;7.40;99.90;;;;;;5096438;28;20036;-64
2022/05/09 02:10:41;;;;;;;14.40;4.80;;;7.40;99.90;;;;;;5094996;28;20074;-64
2022/05/09 02:13:07;;;;;;;17.98;5.28;;;7.40;99.90;;;;;;5095467;28;20076;-64
2022/05/09 02:15:33;;;;;;;15.80;4.90;;;7.30;99.90;;;;;;5095262;28;20076;-65
2022/05/09 02:17:59;;;;;;;15.25;5.20;;;7.30;99.90;;;;;;5095316;28;20480;-64
2022/05/09 02:20:25;;;;;;;15.85;5.05;;;7.30;99.90;;;;;;5095082;28;20051;-65
2022/05/09 02:22:52;;;;;;;13.32;5.30;;;7.40;99.90;;;;;;5095261;28;20051;-64
2022/05/09 02:25:29;;;;;;;17.42;5.20;;;7.40;99.90;;;;;;5094199;28;20052;-64
2022/05/09 02:27:56;;;;;;;18.15;5.07;;;7.30;99.90;;;;;;5095524;28;20185;-64
2022/05/09 02:30:22;;;;;;;13.60;5.75;;;7.30;99.90;;;;;;5077597;28;20047;-64
2022/05/09 02:32:47;;;;;;;20.65;6.15;;;7.20;99.90;;;;;;5078061;28;20350;-64
2022/05/09 02:35:14;;;;;;;18.38;6.30;;;7.30;99.90;;;;;;5095949;28;20063;-64
2022/05/09 02:37:39;;;;;;;15.13;5.57;;;7.20;99.90;;;;;;5078281;28;20040;-65
2022/05/09 02:40:06;;;;;;;15.40;5.95;;;7.20;99.90;;;;;;5077696;28;20038;-65
2022/05/09 02:42:31;;;;;;;12.05;5.60;;;7.10;99.90;;;;;;5061091;28;20036;-64
2022/05/09 02:44:57;;;;;;;20.23;6.88;;;7.00;99.90;;;;;;5095653;28;20093;-64
2022/05/09 02:47:26;;;;;;;16.85;6.88;;;7.00;99.90;;;;;;5078024;28;20048;-64
2022/05/09 02:49:52;;;;;;;14.50;5.93;;;6.90;99.90;;;;;;5077107;28;20404;-64
2022/05/09 02:52:17;;;;;;;16.55;5.60;;;7.00;99.90;;;;;;5077776;28;20062;-64
2022/05/09 02:54:44;;;;;;;20.05;6.45;;;6.90;99.90;;;;;;5077560;28;20046;-64
2022/05/09 02:57:10;;;;;;;16.55;6.47;;;6.90;99.90;;;;;;5061310;28;20043;-63
2022/05/09 02:59:36;;;;;;;15.48;6.30;;;6.90;99.90;;;;;;5077300;28;20036;-64
2022/05/09 03:02:02;;;;;;;17.40;6.38;;;6.90;99.90;;;;;;5077597;28;20535;-64
2022/05/09 03:04:41;;;;;;;20.15;5.97;;;6.90;99.90;;;;;;5077286;28;20040;-64
2022/05/09 03:07:12;;;;;;;18.20;6.82;;;6.90;99.90;;;;;;5095743;28;20369;-64
2022/05/09 03:09:41;;;;;;;17.75;6.32;;;6.80;99.90;;;;;;5076832;28;20407;-64
2022/05/09 03:12:07;;;;;;;14.88;6.25;;;6.80;99.90;;;;;;5077489;28;20043;-64
2022/05/09 03:14:34;;;;;;;16.58;6.28;;;6.80;99.90;;;;;;5076748;28;20063;-64
2022/05/09 03:17:00;;;;;;;17.50;6.35;;;6.70;99.90;;;;;;5077485;28;20039;-64
2022/05/09 03:19:25;;;;;;;16.48;6.40;;;6.60;99.90;;;;;;5076980;28;20478;-64
2022/05/09 03:21:52;;;;;;;18.13;6.40;;;6.60;99.90;;;;;;5077368;28;20036;-64
2022/05/09 03:24:17;;;;;;;19.77;7.15;;;6.60;99.90;;;;;;5076592;28;20113;-64
2022/05/09 03:26:44;;;;;;;15.68;6.20;;;6.70;99.90;;;;;;5077312;28;20052;-64
2022/05/09 03:29:09;;;;;;;16.55;6.60;;;6.80;99.90;;;;;;5091999;28;20035;-65
2022/05/09 03:31:35;;;;;;;18.80;6.63;;;6.80;99.90;;;;;;5095159;28;20121;-64
2022/05/09 03:34:01;;;;;;;15.00;6.28;;;6.70;99.90;;;;;;5076989;28;20044;-64
2022/05/09 03:36:26;;;;;;;16.17;6.72;;;6.60;99.90;;;;;;5094516;28;20137;-64
2022/05/09 03:38:53;;;;;;;16.90;6.05;;;6.50;99.90;;;;;;5094576;28;20074;-65
2022/05/09 03:41:20;;;;;;;14.43;6.13;;;6.50;99.90;;;;;;5094592;28;20079;-64
2022/05/09 03:43:46;;;;;;;18.70;6.45;;;6.50;99.90;;;;;;5076326;28;20063;-65
2022/05/09 03:46:12;;;;;;;16.60;6.63;;;6.50;99.90;;;;;;5076964;28;20468;-64
2022/05/09 03:48:38;;;;;;;13.95;5.90;;;6.50;99.90;;;;;;5092422;28;20040;-64
2022/05/09 03:51:04;;;;;;;19.23;6.57;;;6.50;99.90;;;;;;5075906;28;20044;-64
2022/05/09 03:53:30;;;;;;;17.67;6.53;;;6.50;99.90;;;;;;5059887;28;20207;-64
2022/05/09 03:55:56;;;;;;;17.35;5.90;;;6.50;99.90;;;;;;5076623;28;20032;-65
2022/05/09 03:58:22;;;;;;;15.32;5.95;;;6.50;99.90;;;;;;5076355;28;20107;-65
2022/05/09 04:00:48;;;;;;;17.00;6.43;;;6.50;99.90;;;;;;5076221;28;20039;-63
2022/05/09 04:03:14;;;;;;;12.60;5.38;;;6.50;99.90;;;;;;5076138;28;20036;-64
2022/05/09 04:05:40;;;;;;;16.40;6.32;;;6.50;99.90;;;;;;5076694;28;20043;-65
2022/05/09 04:08:09;;;;;;;12.63;5.43;;;6.60;99.90;;;;;;5076339;28;20395;-64
2022/05/09 04:10:37;;;;;;;15.30;5.50;;;6.60;99.90;;;;;;5076149;28;20040;-65
2022/05/09 04:13:02;;;;;;;17.88;5.75;;;6.60;99.90;;;;;;5059910;28;20051;-64
2022/05/09 04:18:16;;;;;;;;;;;6.50;99.90;;;;;;5094790;28;20158;-64
2022/05/09 04:20:44;;;;;;;12.75;6.15;;;6.50;99.90;;;;;;5076006;28;19980;-64
2022/05/09 04:23:09;;;;;;;18.50;6.60;;;6.50;99.90;;;;;;5094297;28;20044;-64
2022/05/09 04:25:36;;;;;;;17.55;6.05;;;6.40;99.90;;;;;;5076034;28;20067;-64
2022/05/09 04:28:05;;;;;;;18.13;6.78;;;6.50;99.90;;;;;;5075797;28;20119;-64
2022/05/09 04:30:33;;;;;;;15.70;6.15;;;6.60;99.90;;;;;;5075569;28;20145;-63
2022/05/09 04:33:00;;;;;;;17.60;6.28;;;6.80;99.90;;;;;;5094038;28;20050;-64
2022/05/09 04:35:27;;;;;;;11.15;6.10;;;6.90;99.90;;;;;;5076007;28;20519;-64
2022/05/09 04:37:54;;;;;;;12.85;5.68;;;6.80;99.90;;;;;;5076421;28;20365;-64
2022/05/09 04:40:29;;;;;;;11.70;5.78;;;7.20;99.90;;;;;;5075771;28;20040;-65
2022/05/09 04:42:56;;;;;;;11.90;5.93;;;7.50;99.90;;;;;;5075816;28;20044;-64
2022/05/09 04:45:22;;;;;;;17.85;7.43;;;7.60;99.90;;;;;;5076155;28;20121;-64
2022/05/09 04:47:51;;;;;;;15.15;6.35;;;7.60;99.90;;;;;;5075677;28;20043;-64
2022/05/09 04:50:19;;;;;;;14.18;6.00;;;7.40;99.90;;;;;;5078081;28;20048;-63
2022/05/09 04:52:45;;;;;;;15.75;6.22;;;7.30;99.90;;;;;;5059674;28;20377;-64
2022/05/09 04:55:12;;;;;;;13.75;6.72;;;7.20;99.90;;;;;;5059540;28;20041;-64
2022/05/09 04:57:38;;;;;;;18.02;6.85;;;7.30;99.90;;;;;;5059657;28;20206;-63
2022/05/09 05:00:14;;;;;;;16.00;5.60;;;7.50;99.90;;;;;;5061068;28;20058;-63
2022/05/09 05:02:40;;;;;;;16.05;6.30;;;7.80;99.90;;;;;;5059086;28;20087;-64
2022/05/09 05:05:07;;;;;;;17.80;6.15;;;8.20;99.90;;;;;;5058806;28;20049;-64
2022/05/09 05:07:34;;;;;;;17.83;6.55;;;8.80;99.90;;;;;;5060046;28;20044;-65
2022/05/09 05:10:04;;;;;;;15.02;6.15;;;9.50;99.90;;;;;;5060613;28;20051;-65
2022/05/09 05:12:29;;;;;;;15.27;5.40;;;10.00;99.90;;;;;;5076552;28;20033;-65
2022/05/09 05:14:55;;;;;;;16.92;6.63;;;10.80;99.90;;;;;;5059201;28;20044;-66
2022/05/09 05:17:21;;;;;;;14.13;5.45;;;11.30;99.90;;;;;;5076796;28;20371;-65
2022/05/09 05:19:48;;;;;;;13.73;5.53;;;11.60;99.90;;;;;;5070471;28;20040;-65
2022/05/09 05:22:15;;;;;;;17.02;6.03;;;11.90;99.90;;;;;;5079355;28;20587;-66
2022/05/09 05:24:44;;;;;;;13.23;5.55;;;12.20;99.90;;;;;;5075287;28;20123;-65
2022/05/09 05:27:12;;;;;;;13.07;5.20;;;12.40;99.90;;;;;;5095712;28;20419;-66
2022/05/09 05:29:37;;;;;;;15.05;6.32;;;12.70;99.90;;;;;;5096389;28;20036;-65
2022/05/09 05:32:19;;;;;;;16.08;6.10;;;13.00;99.90;;;;;;5117049;28;20054;-63
2022/05/09 05:34:45;;;;;;;15.07;6.18;;;13.30;99.90;;;;;;5082677;28;20406;-65
2022/05/09 05:37:11;;;;;;;19.15;6.72;;;13.50;99.90;;;;;;5100146;28;20464;-66
2022/05/09 05:39:37;;;;;;;14.50;6.03;;;13.40;99.90;;;;;;5117385;28;20040;-64
2022/05/09 05:42:05;;;;;;;14.70;5.30;;;13.60;99.90;;;;;;5095204;28;20051;-65
2022/05/09 05:44:31;;;;;;;16.30;5.88;;;13.80;99.90;;;;;;5107930;28;20464;-63
2022/05/09 05:46:56;;;;;;;12.10;5.72;;;14.00;99.90;;;;;;5097196;28;20089;-64
2022/05/09 05:49:22;;;;;;;15.60;5.72;;;14.00;99.90;;;;;;5085153;28;20031;-64
2022/05/09 05:51:47;;;;;;;17.50;6.07;;;14.30;99.90;;;;;;5108147;28;20109;-66
2022/05/09 05:54:13;;;;;;;17.55;5.78;;;14.50;99.90;;;;;;5078418;28;20054;-66
2022/05/09 05:56:39;;;;;;;16.55;5.95;;;14.70;99.90;;;;;;5109481;28;20036;-64
2022/05/09 05:59:05;;;;;;;16.52;5.97;;;14.80;99.90;;;;;;5099015;28;20418;-64
2022/05/09 06:01:33;;;;;;;15.60;5.60;;;14.90;99.90;;;;;;5098048;28;20085;-64
2022/05/09 06:03:59;;;;;;;10.57;5.07;;;15.50;99.90;;;;;;5099065;28;20051;-64
2022/05/09 06:06:25;;;;;;;13.63;5.22;;;15.50;99.90;;;;;;5112952;28;20028;-64
2022/05/09 06:08:51;;;;;;;15.05;5.97;;;15.20;99.90;;;;;;5078982;28;20073;-65
2022/05/09 06:11:16;;;;;;;15.07;5.63;;;15.50;99.90;;;;;;5094470;28;20036;-64
2022/05/09 06:13:42;;;;;;;15.25;5.47;;;15.70;99.90;;;;;;5077431;28;20048;-64
2022/05/09 06:16:11;;;;;;;10.68;5.32;;;16.20;99.90;;;;;;5059926;28;20169;-64
2022/05/09 06:18:37;;;;;;;16.00;5.43;;;16.30;99.90;;;;;;5091838;28;20484;-65
2022/05/09 06:21:03;;;;;;;16.90;5.90;;;16.50;99.90;;;;;;5096601;28;20076;-66
2022/05/09 06:23:29;;;;;;;15.45;5.32;;;16.30;99.90;;;;;;5094334;28;20075;-64
2022/05/09 06:25:56;;;;;;;15.15;5.47;;;16.60;99.90;;;;;;5098900;28;20039;-64
2022/05/09 06:28:23;;;;;;;17.33;6.25;;;16.90;99.90;;;;;;5094657;28;20054;-64
2022/05/09 06:30:49;;;;;;;13.57;5.63;;;17.00;99.90;;;;;;5116349;28;20048;-64
2022/05/09 06:33:25;;;;;;;15.23;5.53;;;16.80;99.90;;;;;;5115579;28;20042;-65
2022/05/09 06:35:52;;;;;;;17.50;5.65;;;17.00;99.90;;;;;;5095387;28;20453;-64
2022/05/09 06:38:19;;;;;;;19.58;5.82;;;17.10;99.90;;;;;;5078118;28;20465;-64
2022/05/09 06:40:45;;;;;;;15.10;5.45;;;17.20;99.90;;;;;;5096857;28;20066;-64
2022/05/09 06:43:12;;;;;;;10.88;5.00;;;16.80;99.90;;;;;;5104124;28;20357;-64
2022/05/09 06:45:37;;;;;;;12.75;5.45;;;17.30;99.90;;;;;;5095388;28;20479;-64
2022/05/09 06:48:03;;;;;;;14.48;5.22;;;17.70;99.90;;;;;;5095636;28;20140;-65
2022/05/09 06:50:33;;;;;;;17.50;5.13;;;17.70;99.90;;;;;;5094261;28;20047;-66
2022/05/09 06:52:59;;;;;;;13.57;5.35;;;17.90;99.80;;;;;;5116052;28;20126;-65
2022/05/09 06:55:25;;;;;;;14.65;5.13;;;18.30;99.70;;;;;;5098344;28;20150;-65
2022/05/09 06:58:06;;;;;;;14.73;5.30;;;18.40;99.40;;;;;;5115996;28;20491;-65
2022/05/09 07:00:31;;;;;;;16.17;5.50;;;18.60;99.20;;;;;;5115514;28;20457;-65
2022/05/09 07:02:57;;;;;;;14.05;5.30;;;18.80;98.60;;;;;;5115939;28;20036;-65
2022/05/09 07:05:23;;;;;;;13.32;4.80;;;18.70;98.80;;;;;;5097755;28;20140;-65
2022/05/09 07:07:49;;;;;;;14.73;5.25;;;18.80;98.40;;;;;;5115412;28;20043;-65
2022/05/09 07:10:16;;;;;;;11.32;4.50;;;18.80;98.60;;;;;;5097353;28;20123;-65
2022/05/09 07:12:50;;;;;;;14.73;4.85;;;18.70;98.40;;;;;;5097935;28;20036;-64
2022/05/09 07:15:20;;;;;;;18.70;5.28;;;18.90;98.50;;;;;;5116012;28;20036;-64
2022/05/09 07:17:47;;;;;;;14.20;5.10;;;18.70;99.00;;;;;;5115222;28;20047;-63
2022/05/09 07:20:12;;;;;;;13.27;5.35;;;18.10;99.30;;;;;;5093291;28;20457;-63
2022/05/09 07:22:38;;;;;;;11.90;4.60;;;17.90;99.70;;;;;;5094908;28;20058;-64
2022/05/09 07:25:09;;;;;;;14.73;4.80;;;17.80;99.60;;;;;;5076696;28;20412;-64
2022/05/09 07:27:36;;;;;;;16.90;5.57;;;17.70;99.90;;;;;;5094855;28;20044;-65
2022/05/09 07:30:03;;;;;;;14.90;5.45;;;17.70;99.90;;;;;;5106891;28;20077;-64
2022/05/09 07:32:29;;;;;;;15.00;5.15;;;17.70;99.90;;;;;;5115313;28;20040;-64
2022/05/09 07:34:55;;;;;;;11.90;4.90;;;17.70;99.90;;;;;;5098694;28;20036;-65
2022/05/09 07:37:21;;;;;;;13.52;5.25;;;17.70;99.90;;;;;;5096648;28;20100;-63
2022/05/09 07:39:47;;;;;;;16.52;6.10;;;17.80;99.90;;;;;;5078043;28;20076;-64
2022/05/09 07:42:13;;;;;;;14.55;4.57;;;18.10;99.70;;;;;;5090414;28;20067;-63
2022/05/09 07:44:39;;;;;;;14.15;5.45;;;17.80;99.90;;;;;;5097323;28;20046;-64
2022/05/09 07:47:05;;;;;;;15.20;5.22;;;17.60;99.90;;;;;;5114301;28;20043;-64
2022/05/09 07:49:30;;;;;;;13.27;5.57;;;17.70;99.90;;;;;;5096451;28;20044;-64
2022/05/09 07:51:56;;;;;;;13.40;4.90;;;17.80;99.90;;;;;;5114944;28;20059;-65
2022/05/09 07:54:22;;;;;;;12.23;4.85;;;17.90;99.90;;;;;;5114653;28;20047;-64
2022/05/09 07:56:48;;;;;;;15.65;4.75;;;18.10;99.70;;;;;;5096490;28;20080;-64
2022/05/09 07:59:16;;;;;;;15.15;4.55;;;18.20;99.40;;;;;;5096249;28;20047;-64
2022/05/09 08:01:42;;;;;;;12.57;4.65;;;18.10;99.50;;;;;;5096974;28;20053;-64
2022/05/09 08:04:08;;;;;;;12.82;4.88;;;18.10;99.40;;;;;;5096716;28;20048;-64
2022/05/09 08:06:33;;;;;;;15.55;5.20;;;18.10;99.10;;;;;;5114347;28;20069;-64
2022/05/09 08:09:01;;;;;;;14.40;4.90;;;18.40;99.00;;;;;;5096054;28;20050;-64
2022/05/09 08:11:27;;;;;;;12.40;5.10;;;18.40;98.80;;;;;;5096493;28;20514;-65
2022/05/09 08:13:52;;;;;;;13.77;4.72;;;18.50;99.00;;;;;;5114659;28;20032;-64
2022/05/09 08:16:19;;;;;;;12.40;4.93;;;18.40;98.90;;;;;;5114250;28;20466;-65
2022/05/09 08:18:44;;;;;;;13.50;4.60;;;18.50;98.90;;;;;;5114172;28;20039;-64
2022/05/09 08:21:12;;;;;;;16.40;4.90;;;18.60;98.50;;;;;;5096869;28;20093;-65
2022/05/09 08:23:38;;;;;;;16.55;5.00;;;18.80;98.30;;;;;;5113627;28;20135;-64
2022/05/09 08:26:04;;;;;;;13.45;4.32;;;18.90;98.60;;;;;;5096409;28;20051;-65
2022/05/09 08:28:30;;;;;;;11.05;4.40;;;19.00;98.00;;;;;;5114441;28;20479;-65
2022/05/09 08:30:57;;;;;;;12.00;5.07;;;19.00;98.00;;;;;;5095936;28;20078;-65
2022/05/09 08:33:26;;;;;;;12.38;4.65;;;19.00;98.10;;;;;;5110539;28;20331;-65
2022/05/09 08:35:54;;;;;;;13.52;4.35;;;19.00;98.10;;;;;;5093374;28;20047;-65
2022/05/09 08:38:20;;;;;;;12.30;4.32;;;19.00;98.20;;;;;;5094094;28;20032;-65
2022/05/09 08:40:49;;;;;;;12.35;4.90;;;19.00;97.40;;;;;;5111811;28;20446;-64
2022/05/09 08:43:33;;;;;;;12.55;4.00;;;19.10;97.40;;;;;;5096241;28;20054;-65
2022/05/09 08:46:24;;;;;;;14.15;4.65;;;19.20;96.80;;;;;;5095815;28;20142;-65
2022/05/09 08:49:27;;;;;;;10.88;3.90;;;19.30;97.10;;;;;;5095759;28;20459;-66
2022/05/09 08:51:57;;;;;;;10.32;3.70;;;19.20;96.60;;;;;;5099663;28;20040;-65
2022/05/09 08:54:24;;;;;;;9.23;3.10;;;19.20;96.40;;;;;;5093845;28;20047;-64
2022/05/09 08:57:02;;;;;;;11.00;4.13;;;19.30;94.90;;;;;;5075270;28;20437;-65
2022/05/09 08:59:34;;;;;;;10.27;3.53;;;19.50;94.60;;;;;;5100486;28;20475;-65
2022/05/09 09:02:15;;;;;;;13.18;3.65;;;19.50;94.10;;;;;;5113968;28;20039;-65
2022/05/09 09:04:49;;;;;;;13.57;3.65;;;19.70;92.50;;;;;;5096125;28;20123;-66
2022/05/09 09:07:39;;;;;;;9.25;3.10;;;19.70;92.10;;;;;;5113796;28;20044;-67
2022/05/09 09:10:20;;;;;;;8.10;2.97;;;19.70;91.60;;;;;;5113893;28;20047;-64
2022/05/09 09:13:01;;;;;;;8.50;3.00;;;19.70;91.60;;;;;;5114278;28;20040;-65
2022/05/09 09:15:40;;;;;;;8.73;3.08;;;19.80;92.00;;;;;;5095737;28;20472;-65
2022/05/09 09:18:23;;;;;;;8.32;2.65;;;19.80;91.60;;;;;;5113975;28;20036;-66
2022/05/09 09:21:06;;;;;;;8.77;2.90;;;20.00;91.70;;;;;;5095521;28;20406;-65
2022/05/09 09:24:03;;;;;;;7.60;2.70;;;20.10;89.20;;;;;;5087556;28;20044;-65
2022/05/09 09:27:13;;;;;;;9.23;3.05;;;20.20;87.90;;;;;;5104057;28;20071;-64
2022/05/09 09:29:53;;;;;;;10.23;2.80;;;20.20;86.30;;;;;;5091772;28;20168;-63
2022/05/09 09:32:20;;;;;;;6.70;2.75;;;20.30;85.90;;;;;;5096027;28;20052;-64
2022/05/09 09:35:10;;;;;;;8.43;3.08;;;20.20;85.70;;;;;;5095323;28;20126;-63
2022/05/09 09:37:43;;;;;;;7.20;2.40;;;20.10;85.20;;;;;;5079325;28;20040;-64
2022/05/09 09:40:10;;;;;;;11.30;2.35;;;19.90;85.80;;;;;;5109926;28;20086;-65
2022/05/09 09:42:36;;;;;;;8.68;3.28;;;20.00;86.40;;;;;;5099509;28;20046;-65
2022/05/09 09:45:34;;;;;;;9.00;2.78;;;20.20;87.30;;;;;;5117588;28;20051;-65
2022/05/09 09:48:12;;;;;;;9.65;2.75;;;20.40;85.20;;;;;;5098839;28;20136;-65
2022/05/09 09:50:50;;;;;;;8.02;3.05;;;20.60;83.10;;;;;;5099232;28;20115;-64
2022/05/09 09:53:34;;;;;;;8.52;3.13;;;20.60;82.50;;;;;;5099307;28;20035;-64
2022/05/09 09:56:02;;;;;;;;;;;20.70;82.60;;;;;;5099509;28;20050;-64
2022/05/09 09:58:29;;;;;;;6.85;2.75;;;20.30;83.80;;;;;;5117355;28;19920;-64
2022/05/09 10:01:04;;;;;;;9.23;3.00;;;20.40;85.00;;;;;;5098697;28;20545;-65
2022/05/09 10:03:31;;;;;;;13.23;3.10;;;20.50;84.50;;;;;;5099111;28;20055;-64
2022/05/09 10:05:58;;;;;;;7.95;3.00;;;20.50;85.00;;;;;;5094040;28;20048;-63
2022/05/09 10:08:34;;;;;;;15.27;3.60;;;20.20;84.80;;;;;;5097772;28;20527;-64
2022/05/09 10:11:08;;;;;;;13.25;3.25;;;20.60;85.40;;;;;;5097619;28;20043;-63
2022/05/09 10:13:49;;;;;;;12.20;3.15;;;20.40;84.40;;;;;;5098856;28;20064;-63
2022/05/09 10:16:34;;;;;;;8.93;3.00;;;20.20;85.60;;;;;;5098388;28;20115;-62
2022/05/09 10:19:02;;;;;;;9.65;2.80;;;20.40;85.60;;;;;;5098677;28;20482;-63
2022/05/09 10:27:27;;;;;;;8.82;2.85;;;21.00;85.60;;;;;;5098368;28;20075;-64
2022/05/09 10:29:57;;;;;;;9.77;3.13;;;21.20;83.70;;;;;;5116534;28;20071;-63
2022/05/09 10:32:44;;;;;;;11.82;2.90;;;21.00;83.30;;;;;;5098311;28;20039;-63
2022/05/09 10:35:24;;;;;;;8.75;3.10;;;20.80;85.90;;;;;;5098002;28;20036;-64
2022/05/09 10:38:07;;;;;;;12.65;3.38;;;20.90;84.80;;;;;;5116533;28;20119;-63
2022/05/09 10:40:44;;;;;;;10.35;3.05;;;21.20;82.90;;;;;;5098218;28;20137;-63
2022/05/09 10:43:25;;;;;;;7.07;2.40;;;21.40;82.60;;;;;;5116239;28;20482;-64
2022/05/09 10:46:02;;;;;;;10.95;3.15;;;21.30;82.10;;;;;;5097477;28;20047;-64
2022/05/09 10:48:59;;;;;;;9.35;2.50;;;21.40;81.70;;;;;;5099666;28;20054;-63
2022/05/09 10:51:56;;;;;;;9.68;2.67;;;21.60;81.40;;;;;;5095917;28;20036;-64
2022/05/09 10:54:45;;;;;;;8.98;2.47;;;21.60;80.80;;;;;;5050526;28;20492;-65
2022/05/09 10:57:25;;;;;;;8.38;2.67;;;21.50;80.50;;;;;;5077672;28;20040;-64
2022/05/09 10:59:54;;;;;;;7.43;2.65;;;21.60;81.10;;;;;;5062632;28;20097;-64
2022/05/09 11:02:33;;;;;;;8.32;2.85;;;21.70;80.70;;;;;;5114956;28;20088;-64
2022/05/09 11:04:58;;;;;;;9.18;3.10;;;21.60;81.40;;;;;;5094242;28;20047;-65
2022/05/09 11:07:40;;;;;;;10.93;2.92;;;21.70;81.80;;;;;;5095620;28;20039;-65
2022/05/09 11:10:30;;;;;;;13.63;3.10;;;21.70;82.10;;;;;;5079123;28;20040;-64
2022/05/09 11:13:08;;;;;;;11.70;3.38;;;21.90;81.80;;;;;;5075778;28;20361;-65
2022/05/09 11:15:58;;;;;;;9.45;3.00;;;22.00;81.80;;;;;;5075691;28;20039;-64
2022/05/09 11:19:09;;;;;;;10.13;3.20;;;22.10;83.30;;;;;;5093418;28;20060;-64
2022/05/09 11:21:56;;;;;;;11.85;3.15;;;22.30;83.20;;;;;;5094067;28;20108;-65
2022/05/09 11:24:37;;;;;;;7.85;3.13;;;22.40;82.00;;;;;;5072277;28;20373;-65
2022/05/09 11:27:36;;;;;;;6.65;2.95;;;22.40;80.20;;;;;;5073464;28;20044;-64
2022/05/09 11:30:21;;;;;;;7.63;2.95;;;22.50;81.40;;;;;;5085299;28;20319;-66
2022/05/09 11:33:01;;;;;;;11.15;2.95;;;22.50;81.80;;;;;;5095029;28;20097;-63
2022/05/09 11:35:33;;;;;;;10.63;3.17;;;22.50;82.20;;;;;;5051119;28;20529;-64
2022/05/09 11:38:26;;;;;;;8.32;3.20;;;22.50;82.30;;;;;;5040633;28;20464;-64
2022/05/09 11:41:19;;;;;;;7.90;3.30;;;22.50;83.30;;;;;;5074086;28;20422;-66
2022/05/09 11:44:06;;;;;;;10.18;3.25;;;22.10;82.90;;;;;;5095155;28;20052;-65
2022/05/09 11:46:58;;;;;;;10.60;3.88;;;21.90;84.20;;;;;;5076303;28;20108;-64
2022/05/09 11:49:52;;;;;;;11.13;3.67;;;21.80;84.80;;;;;;5076438;28;20044;-64
2022/05/09 11:52:29;;;;;;;9.38;3.53;;;22.00;84.30;;;;;;5065072;28;20060;-64
2022/05/09 11:55:03;;;;;;;10.77;3.70;;;22.00;84.60;;;;;;5094610;28;20047;-64
2022/05/09 11:57:32;;;;;;;11.52;3.85;;;21.90;84.50;;;;;;5076385;28;20055;-64
2022/05/09 12:00:25;;;;;;;10.70;3.60;;;22.00;85.10;;;;;;5075937;28;20048;-64
2022/05/09 12:02:57;;;;;;;8.87;3.30;;;22.00;84.00;;;;;;5076463;28;20044;-64
2022/05/09 12:05:25;;;;;;;10.52;3.30;;;22.00;83.00;;;;;;5094151;28;20341;-66
2022/05/09 12:08:15;;;;;;;8.25;3.17;;;22.20;84.10;;;;;;5076724;28;20043;-64
2022/05/09 12:10:44;;;;;;;6.97;3.03;;;22.20;84.80;;;;;;5064298;28;20384;-62
2022/05/09 12:13:24;;;;;;;9.55;2.92;;;22.30;83.90;;;;;;5076302;28;20079;-66
2022/05/09 12:16:00;;;;;;;8.95;3.25;;;22.50;83.00;;;;;;5075973;28;20089;-63
2022/05/09 12:18:27;;;;;;;5.95;2.85;;;22.60;83.60;;;;;;5094188;28;20093;-62
2022/05/09 12:20:53;;;;;;;6.57;3.00;;;22.60;82.50;;;;;;5093735;28;20396;-62
2022/05/09 12:23:47;;;;;;;8.88;2.72;;;22.70;81.60;;;;;;5094416;28;20055;-62
2022/05/09 12:26:30;;;;;;;8.57;3.00;;;22.70;80.30;;;;;;5093819;28;20052;-63
2022/05/09 12:29:28;;;;;;;5.57;2.75;;;22.80;80.20;;;;;;5075677;28;20137;-62
2022/05/09 12:32:03;;;;;;;7.30;3.00;;;22.50;81.50;;;;;;5055882;28;20516;-63
2022/05/09 12:34:40;;;;;;;8.32;3.00;;;22.50;81.80;;;;;;5086391;28;20054;-63
2022/05/09 12:37:07;;;;;;;12.10;3.40;;;22.40;80.20;;;;;;5093658;28;20040;-63
2022/05/09 12:39:36;;;;;;;10.23;3.30;;;22.20;81.10;;;;;;5093611;28;20046;-63
2022/05/09 12:42:11;;;;;;;8.82;3.25;;;22.40;81.60;;;;;;5076541;28;20058;-63
2022/05/09 12:44:44;;;;;;;7.78;2.90;;;22.50;81.20;;;;;;5076446;28;20048;-63
2022/05/09 12:47:16;;;;;;;8.60;3.33;;;22.60;81.60;;;;;;5076038;28;20035;-63
2022/05/09 12:50:02;;;;;;;8.43;3.40;;;22.70;80.90;;;;;;5075686;28;20105;-63
2022/05/09 12:52:31;;;;;;;8.68;3.40;;;22.60;81.10;;;;;;5075952;28;20048;-63
2022/05/09 12:57:44;;;;;;;10.73;3.55;;;22.90;80.70;;;;;;5075909;28;20059;-63
2022/05/09 13:00:26;;;;;;;8.80;3.22;;;22.70;79.70;;;;;;5058792;28;20040;-63
2022/05/09 13:02:52;;;;;;;7.82;3.17;;;22.90;80.20;;;;;;5093816;28;20040;-63
2022/05/09 13:05:32;;;;;;;9.35;3.08;;;22.90;80.80;;;;;;5075653;28;20395;-64
2022/05/09 13:08:00;;;;;;;9.45;3.13;;;23.00;80.50;;;;;;5075743;28;20052;-64
2022/05/09 13:10:28;;;;;;;10.30;3.83;;;23.10;79.90;;;;;;5073367;28;20339;-63
2022/05/09 13:13:02;;;;;;;9.88;3.65;;;23.10;80.10;;;;;;5059730;28;20044;-64
2022/05/09 13:15:28;;;;;;;7.53;3.05;;;23.20;79.80;;;;;;5059320;28;20170;-63
2022/05/09 13:18:04;;;;;;;10.90;3.50;;;23.20;80.40;;;;;;5059586;28;20043;-63